Time;durP1;ratioP1;P1;durP2;ratioP2;P2;SDS_P1;SDS_P2;PMS_P1;PMS_P2;Temp;Humidity;BMP_temperature;BMP_pressure;BME280_temperature;BME280_humidity;BME280_pressure;Samples;Min_cycle;Max_cycle;Signal;HPM_P1;HPM_P2
2020/12/25 00:02:07;;;;;;;1.23;0.65;;;5.80;95.70;;;;;;4995676;28;20026;-76
2020/12/25 00:04:34;;;;;;;1.40;0.57;;;5.80;95.70;;;;;;4997580;28;20025;-77
2020/12/25 00:07:00;;;;;;;2.50;0.90;;;5.80;95.70;;;;;;5014368;28;20030;-75
2020/12/25 00:09:26;;;;;;;2.10;0.98;;;5.80;95.70;;;;;;4997307;28;20563;-75
2020/12/25 00:11:52;;;;;;;4.95;0.90;;;5.70;95.70;;;;;;4997125;28;20405;-76
2020/12/25 00:14:18;;;;;;;4.18;0.80;;;5.70;95.70;;;;;;5014090;28;20113;-76
2020/12/25 00:16:44;;;;;;;1.95;0.80;;;5.70;95.70;;;;;;5014737;28;20026;-75
2020/12/25 00:19:10;;;;;;;6.53;0.98;;;5.70;95.70;;;;;;4996526;28;20026;-76
2020/12/25 00:21:37;;;;;;;4.10;0.80;;;5.70;95.70;;;;;;5014605;28;20034;-75
2020/12/25 00:24:05;;;;;;;2.10;0.90;;;5.70;95.70;;;;;;5014301;28;20033;-76
2020/12/25 00:26:33;;;;;;;2.50;0.77;;;5.60;95.60;;;;;;5014596;28;20022;-76
2020/12/25 00:29:00;;;;;;;0.93;0.70;;;5.60;95.60;;;;;;4996400;28;20347;-77
2020/12/25 00:31:31;;;;;;;5.78;0.93;;;5.60;95.60;;;;;;4996958;28;20018;-77
2020/12/25 00:33:59;;;;;;;0.52;0.47;;;5.60;95.60;;;;;;5013979;28;20524;-78
2020/12/25 00:36:33;;;;;;;1.58;0.77;;;5.50;95.60;;;;;;4996758;28;20061;-77
2020/12/25 00:39:03;;;;;;;5.03;0.82;;;5.50;95.60;;;;;;5013764;28;20022;-78
2020/12/25 00:41:29;;;;;;;5.00;1.00;;;5.50;95.60;;;;;;4996525;28;20473;-76
2020/12/25 00:43:55;;;;;;;2.70;0.90;;;5.50;95.60;;;;;;4996609;28;20117;-77
2020/12/25 00:46:21;;;;;;;7.18;0.88;;;5.50;95.60;;;;;;5013841;28;20121;-77
2020/12/25 00:48:47;;;;;;;3.20;0.93;;;5.50;95.60;;;;;;4996373;28;20040;-77
2020/12/25 00:51:18;;;;;;;2.42;0.77;;;5.40;95.60;;;;;;5013501;28;20022;-77
2020/12/25 00:53:44;;;;;;;1.45;0.80;;;5.40;95.60;;;;;;4995904;28;20022;-77
2020/12/25 00:56:11;;;;;;;4.07;0.85;;;5.40;95.60;;;;;;4995882;28;20057;-77
2020/12/25 00:58:38;;;;;;;2.88;1.27;;;5.40;95.60;;;;;;4996202;28;20029;-76
2020/12/25 01:01:05;;;;;;;1.20;0.90;;;5.30;95.60;;;;;;4995603;28;20034;-76
2020/12/25 01:03:32;;;;;;;2.10;0.75;;;5.30;95.60;;;;;;4996204;28;20029;-76
2020/12/25 01:05:58;;;;;;;5.90;1.15;;;5.30;95.60;;;;;;5013088;28;20502;-79
2020/12/25 01:08:24;;;;;;;3.92;0.60;;;5.20;95.50;;;;;;5013696;28;20018;-75
2020/12/25 01:10:49;;;;;;;3.65;1.10;;;5.30;95.60;;;;;;4982765;28;20057;-76
2020/12/25 01:13:16;;;;;;;2.13;0.75;;;5.20;95.60;;;;;;4992908;28;20026;-76
2020/12/25 01:15:41;;;;;;;1.15;0.98;;;5.20;95.60;;;;;;4993688;28;20416;-76
2020/12/25 01:18:07;;;;;;;4.65;0.65;;;5.20;95.60;;;;;;4992050;28;20026;-76
2020/12/25 01:20:35;;;;;;;3.10;0.95;;;5.20;95.60;;;;;;4992494;28;20029;-75
2020/12/25 01:23:01;;;;;;;1.35;0.70;;;5.20;95.60;;;;;;4975694;28;20023;-77
2020/12/25 01:25:27;;;;;;;1.65;0.93;;;5.20;95.60;;;;;;4976297;28;20125;-77
2020/12/25 01:27:52;;;;;;;0.88;0.63;;;5.10;95.50;;;;;;4992486;28;20149;-77
2020/12/25 01:30:18;;;;;;;2.72;0.60;;;5.20;95.60;;;;;;4975665;28;20046;-77
2020/12/25 01:32:44;;;;;;;3.90;1.05;;;5.10;95.50;;;;;;4976098;28;20026;-77
2020/12/25 01:35:09;;;;;;;1.90;0.80;;;5.10;95.60;;;;;;4992828;28;20113;-76
2020/12/25 01:37:35;;;;;;;0.50;0.50;;;5.10;95.60;;;;;;4992241;28;20418;-76
2020/12/25 01:40:01;;;;;;;5.80;0.90;;;5.10;95.60;;;;;;4993616;28;20471;-81
2020/12/25 01:42:27;;;;;;;3.92;0.73;;;5.10;95.60;;;;;;4975841;28;20057;-77
2020/12/25 01:44:52;;;;;;;2.22;0.80;;;5.10;95.60;;;;;;4975904;28;20081;-78
2020/12/25 01:47:20;;;;;;;1.67;0.60;;;5.20;95.60;;;;;;4975450;28;20534;-77
2020/12/25 01:49:47;;;;;;;2.97;0.80;;;5.20;95.60;;;;;;4975755;28;20026;-77
2020/12/25 01:52:13;;;;;;;0.98;0.60;;;5.20;95.60;;;;;;4975509;28;20084;-76
2020/12/25 01:54:43;;;;;;;1.23;0.80;;;5.20;95.60;;;;;;4975523;28;20053;-76
2020/12/25 01:57:13;;;;;;;2.00;0.90;;;5.20;95.50;;;;;;4975260;28;20356;-77
2020/12/25 01:59:40;;;;;;;4.25;0.80;;;5.10;95.50;;;;;;4975784;28;20076;-76
2020/12/25 02:02:07;;;;;;;1.80;1.10;;;5.10;95.60;;;;;;4992575;28;20022;-76
2020/12/25 02:04:33;;;;;;;1.52;0.88;;;5.10;95.50;;;;;;4992874;28;20132;-76
2020/12/25 02:06:59;;;;;;;2.45;1.13;;;5.10;95.50;;;;;;4992893;28;20026;-74
2020/12/25 02:09:24;;;;;;;2.83;0.80;;;5.10;95.60;;;;;;4976082;28;20505;-77
2020/12/25 02:11:50;;;;;;;3.55;0.98;;;5.10;95.50;;;;;;5012699;28;20061;-76
2020/12/25 02:14:16;;;;;;;0.75;0.60;;;5.10;95.50;;;;;;5011985;28;20026;-76
2020/12/25 02:16:41;;;;;;;2.90;0.70;;;5.10;95.50;;;;;;5011287;28;20030;-76
2020/12/25 02:19:08;;;;;;;1.00;0.73;;;5.10;95.60;;;;;;4994342;28;20026;-77
2020/12/25 02:21:34;;;;;;;2.08;0.70;;;5.10;95.60;;;;;;5012967;28;20030;-75
2020/12/25 02:24:00;;;;;;;3.67;0.90;;;5.10;95.60;;;;;;4994799;28;20106;-76
2020/12/25 02:26:25;;;;;;;1.23;0.60;;;5.10;95.60;;;;;;5011221;28;20113;-76
2020/12/25 02:28:51;;;;;;;2.25;0.75;;;5.10;95.60;;;;;;5012569;28;20108;-76
2020/12/25 02:31:17;;;;;;;3.50;1.20;;;5.10;95.60;;;;;;5010293;28;20057;-76
2020/12/25 02:33:43;;;;;;;1.33;0.60;;;5.10;95.60;;;;;;5011363;28;20029;-76
2020/12/25 02:36:09;;;;;;;0.60;0.60;;;5.20;95.60;;;;;;5011686;28;20437;-76
2020/12/25 02:38:34;;;;;;;1.63;0.88;;;5.10;95.60;;;;;;4994897;28;20061;-75
2020/12/25 02:41:00;;;;;;;1.25;0.70;;;5.20;95.60;;;;;;5012663;28;20097;-76
2020/12/25 02:43:25;;;;;;;1.58;0.68;;;5.30;95.60;;;;;;4994281;28;20041;-76
2020/12/25 02:45:51;;;;;;;3.20;0.80;;;5.30;95.60;;;;;;5010996;28;20486;-76
2020/12/25 02:48:17;;;;;;;1.85;0.60;;;5.30;95.50;;;;;;4994155;28;20018;-76
2020/12/25 02:50:42;;;;;;;0.55;0.55;;;5.30;95.50;;;;;;5011171;28;20018;-75
2020/12/25 02:53:08;;;;;;;1.30;0.75;;;5.30;95.50;;;;;;4994583;28;20370;-76
2020/12/25 02:55:34;;;;;;;5.80;0.82;;;5.30;95.50;;;;;;5012520;28;20045;-75
2020/12/25 02:57:59;;;;;;;3.03;0.90;;;5.20;95.40;;;;;;5012607;28;20045;-75
2020/12/25 03:00:25;;;;;;;1.80;0.77;;;5.20;95.50;;;;;;4994195;28;20033;-75
2020/12/25 03:02:50;;;;;;;0.85;0.57;;;5.20;95.50;;;;;;4994424;28;20026;-77
2020/12/25 03:05:16;;;;;;;4.80;0.80;;;5.10;95.50;;;;;;5010326;28;20417;-76
2020/12/25 03:07:42;;;;;;;1.38;0.82;;;5.10;95.50;;;;;;4994407;28;20034;-76
2020/12/25 03:10:07;;;;;;;2.13;0.55;;;5.10;95.60;;;;;;4993475;28;20394;-78
2020/12/25 03:12:33;;;;;;;0.68;0.63;;;5.10;95.60;;;;;;5010841;28;20463;-76
2020/12/25 03:14:59;;;;;;;3.25;0.70;;;5.10;95.50;;;;;;4994255;28;20398;-75
2020/12/25 03:17:24;;;;;;;2.55;0.90;;;5.10;95.80;;;;;;4993792;28;20074;-76
2020/12/25 03:19:50;;;;;;;1.52;0.57;;;5.00;95.50;;;;;;5011938;28;20030;-76
2020/12/25 03:22:15;;;;;;;9.48;1.60;;;5.10;95.60;;;;;;5011119;28;20030;-76
2020/12/25 03:24:41;;;;;;;4.85;0.90;;;5.00;95.70;;;;;;5011659;28;20045;-76
2020/12/25 03:27:06;;;;;;;0.60;0.60;;;5.00;95.50;;;;;;5011789;28;20037;-77
2020/12/25 03:29:32;;;;;;;4.32;0.80;;;5.00;95.50;;;;;;5011083;28;20022;-77
2020/12/25 03:31:58;;;;;;;3.13;0.50;;;5.00;95.60;;;;;;5011674;28;20026;-77
2020/12/25 03:34:24;;;;;;;0.60;0.60;;;5.10;95.60;;;;;;4993770;28;20026;-76
2020/12/25 03:36:49;;;;;;;2.10;0.55;;;5.10;95.60;;;;;;5012002;28;20383;-77
2020/12/25 03:39:15;;;;;;;0.93;0.60;;;5.20;95.60;;;;;;5014900;28;20148;-76
2020/12/25 03:41:41;;;;;;;0.60;0.60;;;5.20;95.50;;;;;;4997733;28;20030;-76
2020/12/25 03:44:06;;;;;;;0.50;0.50;;;5.20;95.50;;;;;;5015400;28;20022;-76
2020/12/25 03:46:36;;;;;;;0.50;0.50;;;5.20;95.50;;;;;;4997006;28;20034;-75
2020/12/25 03:49:04;;;;;;;1.98;0.45;;;5.30;95.50;;;;;;4997719;28;20458;-76
2020/12/25 03:51:29;;;;;;;0.90;0.60;;;5.30;95.50;;;;;;5014778;28;20304;-76
2020/12/25 03:53:55;;;;;;;0.60;0.60;;;5.30;95.50;;;;;;4997821;28;20022;-75
2020/12/25 03:56:21;;;;;;;0.65;0.50;;;5.30;95.50;;;;;;4996864;28;20022;-75
2020/12/25 03:58:46;;;;;;;0.52;0.52;;;5.30;95.50;;;;;;5015501;28;20026;-76
2020/12/25 04:01:12;;;;;;;1.25;0.68;;;5.20;95.40;;;;;;5014316;28;20033;-77
2020/12/25 04:03:38;;;;;;;1.35;0.65;;;5.20;95.50;;;;;;4997500;28;20022;-76
2020/12/25 04:06:03;;;;;;;0.52;0.52;;;5.20;95.50;;;;;;5015123;28;20475;-76
2020/12/25 04:08:29;;;;;;;0.40;0.40;;;5.20;95.50;;;;;;4996807;28;20021;-76
2020/12/25 04:10:55;;;;;;;0.50;0.50;;;5.20;95.50;;;;;;5014587;28;20050;-76
2020/12/25 04:13:22;;;;;;;2.40;0.43;;;5.20;95.50;;;;;;5013105;28;20021;-77
2020/12/25 04:15:48;;;;;;;0.68;0.50;;;5.10;95.40;;;;;;5014753;28;20521;-77
2020/12/25 04:18:14;;;;;;;4.82;0.90;;;5.10;95.50;;;;;;4996395;28;20378;-77
2020/12/25 04:20:39;;;;;;;1.63;0.40;;;5.10;95.50;;;;;;5014495;28;20022;-77
2020/12/25 04:23:05;;;;;;;0.40;0.40;;;5.10;95.50;;;;;;5014833;28;20061;-77
2020/12/25 04:25:31;;;;;;;1.67;0.50;;;5.10;95.50;;;;;;4996491;28;20076;-77
2020/12/25 04:27:56;;;;;;;0.63;0.63;;;5.00;95.50;;;;;;5013177;28;20033;-77
2020/12/25 04:30:22;;;;;;;0.45;0.45;;;5.00;95.50;;;;;;5013904;28;20377;-78
2020/12/25 04:32:47;;;;;;;0.30;0.30;;;5.00;95.50;;;;;;4997237;28;20040;-76
2020/12/25 04:35:13;;;;;;;0.93;0.50;;;5.00;95.50;;;;;;5013545;28;20026;-84
2020/12/25 04:37:39;;;;;;;1.15;0.50;;;5.10;95.60;;;;;;5014372;28;20030;-76
2020/12/25 04:40:05;;;;;;;1.25;0.60;;;5.00;95.50;;;;;;5013914;28;20030;-77
2020/12/25 04:42:38;;;;;;;0.65;0.40;;;5.10;95.50;;;;;;4995838;28;20036;-77
2020/12/25 04:45:04;;;;;;;0.85;0.60;;;5.00;95.50;;;;;;4996733;28;20025;-76
2020/12/25 04:47:30;;;;;;;0.50;0.50;;;5.10;95.50;;;;;;4995715;28;20038;-77
2020/12/25 04:49:55;;;;;;;1.63;0.50;;;5.10;95.60;;;;;;5013464;28;20022;-77
2020/12/25 04:52:21;;;;;;;0.35;0.35;;;5.10;95.60;;;;;;5013468;28;20058;-77
2020/12/25 04:54:47;;;;;;;0.40;0.40;;;5.10;95.50;;;;;;4996434;28;20037;-76
2020/12/25 04:57:12;;;;;;;1.17;0.52;;;5.10;95.50;;;;;;4996336;28;20537;-76
2020/12/25 04:59:38;;;;;;;0.47;0.43;;;5.10;95.50;;;;;;4995826;28;20083;-78
2020/12/25 05:02:04;;;;;;;1.00;0.50;;;5.10;95.50;;;;;;4996545;28;20489;-74
2020/12/25 05:04:30;;;;;;;0.30;0.30;;;5.10;95.50;;;;;;4995360;28;20022;-76
2020/12/25 05:06:55;;;;;;;2.05;0.40;;;5.20;95.50;;;;;;5013552;28;20152;-76
2020/12/25 05:09:23;;;;;;;0.38;0.38;;;5.10;95.40;;;;;;5012004;28;20022;-77
2020/12/25 05:11:53;;;;;;;0.50;0.40;;;5.10;95.40;;;;;;5013819;28;20046;-76
2020/12/25 05:14:24;;;;;;;0.75;0.50;;;5.10;95.40;;;;;;4995428;28;20029;-77
2020/12/25 05:16:54;;;;;;;0.30;0.30;;;5.10;95.40;;;;;;5013745;28;20037;-76
2020/12/25 05:19:23;;;;;;;2.17;0.60;;;5.10;95.40;;;;;;5013127;28;20820;-77
2020/12/25 05:21:51;;;;;;;0.50;0.50;;;5.10;95.40;;;;;;4995770;28;20462;-76
2020/12/25 05:24:18;;;;;;;3.95;0.80;;;5.10;95.50;;;;;;5013027;28;20026;-83
2020/12/25 05:26:54;;;;;;;0.43;0.40;;;5.00;95.40;;;;;;5013548;28;20175;-75
2020/12/25 05:29:23;;;;;;;2.63;0.50;;;5.00;95.40;;;;;;5013347;28;20029;-76
2020/12/25 05:31:49;;;;;;;0.40;0.40;;;5.00;95.50;;;;;;5013407;28;20052;-76
2020/12/25 05:34:17;;;;;;;0.50;0.50;;;5.00;95.40;;;;;;5012990;28;20097;-78
2020/12/25 05:36:51;;;;;;;0.50;0.50;;;5.10;95.50;;;;;;5012839;28;20114;-76
2020/12/25 05:39:34;;;;;;;1.00;0.40;;;5.10;95.50;;;;;;4995512;28;20022;-76
2020/12/25 05:42:02;;;;;;;0.40;0.40;;;5.20;95.50;;;;;;5012842;28;20038;-76
2020/12/25 05:44:34;;;;;;;0.55;0.55;;;5.10;95.40;;;;;;5012342;28;20018;-75
2020/12/25 05:47:00;;;;;;;0.40;0.40;;;5.10;95.40;;;;;;4995418;28;20041;-76
2020/12/25 05:49:29;;;;;;;0.40;0.40;;;5.10;95.40;;;;;;4995149;28;20022;-76
2020/12/25 05:51:56;;;;;;;0.30;0.30;;;5.10;95.40;;;;;;5012862;28;20546;-76
2020/12/25 05:54:24;;;;;;;0.50;0.45;;;5.00;95.40;;;;;;5012253;28;20026;-77
2020/12/25 05:56:58;;;;;;;0.60;0.50;;;5.10;95.50;;;;;;4995944;28;20022;-75
2020/12/25 05:59:33;;;;;;;0.50;0.50;;;5.10;95.50;;;;;;5012200;28;20022;-84
2020/12/25 06:02:01;;;;;;;0.40;0.40;;;5.00;95.50;;;;;;4995599;28;20022;-76
2020/12/25 06:04:29;;;;;;;0.75;0.50;;;5.00;95.40;;;;;;5013030;28;20029;-76
2020/12/25 06:06:55;;;;;;;0.82;0.70;;;5.00;95.50;;;;;;5012687;28;20120;-76
2020/12/25 06:09:34;;;;;;;1.40;0.90;;;5.00;95.50;;;;;;5012270;28;20473;-81
2020/12/25 06:12:00;;;;;;;0.40;0.40;;;5.00;95.50;;;;;;5014032;28;20050;-76
2020/12/25 06:14:26;;;;;;;0.70;0.68;;;5.00;95.50;;;;;;5012209;28;20026;-76
2020/12/25 06:16:58;;;;;;;0.50;0.50;;;5.00;95.60;;;;;;4995019;28;20022;-76
2020/12/25 06:20:01;;;;;;;0.73;0.73;;;5.10;95.50;;;;;;4994408;28;20493;-77
2020/12/25 06:22:40;;;;;;;0.73;0.60;;;5.10;95.50;;;;;;5012317;28;20109;-76
2020/12/25 06:25:13;;;;;;;0.90;0.63;;;5.10;95.50;;;;;;4995246;28;20053;-76
2020/12/25 06:27:59;;;;;;;3.30;0.60;;;5.00;95.50;;;;;;5012126;28;20036;-76
2020/12/25 06:30:27;;;;;;;1.42;0.57;;;5.10;95.50;;;;;;4994545;28;20053;-76
2020/12/25 06:32:55;;;;;;;1.65;0.65;;;5.00;95.50;;;;;;5012131;28;20033;-76
2020/12/25 06:35:37;;;;;;;1.10;0.50;;;5.10;95.50;;;;;;4994885;28;20060;-76
2020/12/25 06:38:21;;;;;;;;;;;5.10;95.50;;;;;;5012575;28;20030;-76
2020/12/25 06:40:47;;;;;;;1.17;0.50;;;5.00;95.50;;;;;;4994356;28;20392;-75
2020/12/25 06:43:18;;;;;;;0.90;0.50;;;5.10;95.60;;;;;;5012483;28;20493;-77
2020/12/25 06:45:50;;;;;;;0.40;0.40;;;5.10;95.60;;;;;;4994214;28;20037;-77
2020/12/25 06:48:20;;;;;;;1.17;0.60;;;5.10;95.60;;;;;;4994838;28;20080;-77
2020/12/25 06:50:51;;;;;;;0.40;0.40;;;5.20;95.60;;;;;;5011773;28;20030;-77
2020/12/25 06:53:38;;;;;;;0.50;0.50;;;5.20;95.60;;;;;;5012660;28;20034;-78
2020/12/25 06:56:15;;;;;;;1.48;0.70;;;5.30;95.50;;;;;;5012363;28;20022;-77
2020/12/25 06:58:46;;;;;;;2.28;0.70;;;5.30;95.50;;;;;;4994095;28;20116;-77
2020/12/25 07:01:34;;;;;;;4.15;0.77;;;5.30;95.60;;;;;;4994722;28;20541;-75
2020/12/25 07:04:01;;;;;;;0.63;0.50;;;5.40;95.50;;;;;;4994229;28;20050;-76
2020/12/25 07:06:31;;;;;;;1.25;0.45;;;5.40;95.50;;;;;;5011544;28;20030;-76
2020/12/25 07:09:11;;;;;;;5.22;0.70;;;5.40;95.50;;;;;;5012193;28;20065;-76
2020/12/25 07:11:37;;;;;;;1.90;0.60;;;5.40;95.50;;;;;;5013055;28;20074;-77
2020/12/25 07:14:04;;;;;;;2.95;0.70;;;5.40;95.50;;;;;;5015895;28;20057;-77
2020/12/25 07:16:30;;;;;;;0.40;0.40;;;5.40;95.40;;;;;;5015449;28;20069;-77
2020/12/25 07:18:55;;;;;;;0.40;0.40;;;5.30;95.50;;;;;;4998116;28;20470;-77
2020/12/25 07:21:21;;;;;;;2.38;0.60;;;5.30;95.50;;;;;;5014651;28;20029;-76
2020/12/25 07:23:47;;;;;;;1.10;0.55;;;5.20;95.40;;;;;;4997660;28;20029;-77
2020/12/25 07:26:13;;;;;;;1.13;0.57;;;5.20;95.50;;;;;;5014374;28;20036;-76
2020/12/25 07:28:39;;;;;;;0.75;0.60;;;5.20;95.50;;;;;;4997555;28;20022;-76
2020/12/25 07:31:05;;;;;;;1.55;0.95;;;5.20;95.50;;;;;;4997933;28;20374;-76
2020/12/25 07:33:31;;;;;;;1.52;0.60;;;5.20;95.50;;;;;;5015522;28;20018;-77
2020/12/25 07:35:58;;;;;;;2.72;0.70;;;5.20;95.50;;;;;;5014293;28;20032;-77
2020/12/25 07:38:25;;;;;;;2.75;0.50;;;5.20;95.50;;;;;;5015569;28;20054;-76
2020/12/25 07:40:51;;;;;;;2.75;0.70;;;5.30;95.60;;;;;;5014751;28;20030;-76
2020/12/25 07:43:19;;;;;;;0.45;0.45;;;5.20;95.50;;;;;;4997811;28;20470;-76
2020/12/25 07:45:47;;;;;;;0.43;0.43;;;5.20;95.50;;;;;;5014864;28;20022;-76
2020/12/25 07:48:13;;;;;;;0.52;0.52;;;5.20;95.50;;;;;;5015144;28;20121;-76
2020/12/25 07:50:43;;;;;;;2.95;0.75;;;5.20;95.50;;;;;;5014746;28;20022;-76
2020/12/25 07:53:17;;;;;;;1.23;0.50;;;5.20;95.50;;;;;;5015324;28;20354;-76
2020/12/25 07:55:49;;;;;;;5.15;0.80;;;5.20;95.50;;;;;;5014277;28;20386;-76
2020/12/25 07:58:16;;;;;;;0.40;0.40;;;5.20;95.50;;;;;;5015303;28;20030;-77
2020/12/25 08:00:43;;;;;;;1.77;0.68;;;5.10;95.50;;;;;;5014620;28;20022;-77
2020/12/25 08:03:10;;;;;;;3.08;0.60;;;5.10;95.50;;;;;;4997538;28;20022;-75
2020/12/25 08:05:36;;;;;;;4.57;0.50;;;5.10;95.50;;;;;;4997117;28;20493;-76
2020/12/25 08:08:03;;;;;;;0.90;0.60;;;5.10;95.50;;;;;;5013645;28;20069;-76
2020/12/25 08:10:30;;;;;;;1.25;0.88;;;5.10;95.50;;;;;;5015006;28;20474;-77
2020/12/25 08:12:58;;;;;;;3.40;0.73;;;5.00;95.50;;;;;;5015282;28;20105;-76
2020/12/25 08:15:25;;;;;;;1.85;0.63;;;5.00;95.50;;;;;;4997298;28;20113;-77
2020/12/25 08:17:52;;;;;;;0.65;0.65;;;5.00;95.50;;;;;;4996799;28;20038;-77
2020/12/25 08:20:17;;;;;;;0.93;0.60;;;5.00;95.50;;;;;;5014946;28;20029;-75
2020/12/25 08:22:43;;;;;;;2.10;0.60;;;5.00;95.50;;;;;;4995910;28;20033;-76
2020/12/25 08:25:10;;;;;;;0.77;0.60;;;5.00;95.50;;;;;;5014362;28;20454;-77
2020/12/25 08:27:36;;;;;;;1.63;0.68;;;5.00;95.50;;;;;;5014221;28;20104;-77
2020/12/25 08:30:06;;;;;;;1.02;0.75;;;5.00;95.50;;;;;;4997046;28;20029;-77
2020/12/25 08:32:32;;;;;;;0.77;0.63;;;5.10;95.50;;;;;;4996447;28;20473;-79
2020/12/25 08:35:11;;;;;;;1.90;0.75;;;5.10;95.50;;;;;;4997065;28;20374;-76
2020/12/25 08:37:37;;;;;;;1.08;0.68;;;5.10;95.50;;;;;;5013949;28;20033;-76
2020/12/25 08:40:15;;;;;;;1.50;0.70;;;5.10;95.50;;;;;;4997070;28;20030;-76
2020/12/25 08:42:41;;;;;;;0.50;0.50;;;5.20;95.50;;;;;;5013883;28;20025;-76
2020/12/25 08:45:07;;;;;;;0.85;0.45;;;5.20;95.50;;;;;;4996603;28;20375;-77
2020/12/25 08:47:33;;;;;;;1.48;0.70;;;5.20;95.40;;;;;;4995921;28;20037;-78
2020/12/25 08:49:58;;;;;;;1.00;0.60;;;5.30;95.40;;;;;;4996678;28;20125;-76
2020/12/25 08:52:24;;;;;;;2.10;0.60;;;5.30;95.40;;;;;;5014237;28;20038;-76
2020/12/25 08:54:57;;;;;;;1.73;0.60;;;5.30;95.40;;;;;;4995958;28;20038;-76
2020/12/25 08:57:24;;;;;;;5.43;0.60;;;5.30;95.30;;;;;;4996605;28;20026;-77
2020/12/25 09:00:04;;;;;;;2.95;0.70;;;5.30;95.40;;;;;;5013232;28;20378;-77
2020/12/25 09:02:29;;;;;;;1.10;0.70;;;5.30;95.40;;;;;;4996307;28;20030;-77
2020/12/25 09:04:55;;;;;;;2.47;0.77;;;5.20;95.40;;;;;;5013644;28;20164;-77
2020/12/25 09:07:20;;;;;;;1.15;0.70;;;5.30;95.50;;;;;;5013701;28;20038;-77
2020/12/25 09:09:46;;;;;;;1.50;0.82;;;5.30;95.50;;;;;;4995625;28;20033;-76
2020/12/25 09:12:12;;;;;;;3.13;0.85;;;5.30;95.40;;;;;;5012544;28;20370;-77
2020/12/25 09:14:37;;;;;;;2.17;0.52;;;5.40;95.50;;;;;;5013424;28;20092;-77
2020/12/25 09:17:03;;;;;;;0.85;0.60;;;5.30;95.40;;;;;;5012712;28;20032;-76
2020/12/25 09:19:28;;;;;;;1.52;0.80;;;5.40;95.50;;;;;;5013580;28;20021;-76
2020/12/25 09:21:54;;;;;;;1.02;0.70;;;5.40;95.40;;;;;;4995601;28;20037;-76
2020/12/25 09:24:20;;;;;;;3.33;0.98;;;5.40;95.40;;;;;;4995859;28;20025;-77
2020/12/25 09:26:47;;;;;;;1.90;1.00;;;5.40;95.40;;;;;;5011749;28;20042;-77
2020/12/25 09:29:13;;;;;;;2.83;1.48;;;5.50;95.50;;;;;;4995748;28;20072;-77
2020/12/25 09:31:38;;;;;;;1.95;0.80;;;5.50;95.40;;;;;;5011698;28;20026;-77
2020/12/25 09:34:04;;;;;;;1.13;0.77;;;5.40;95.40;;;;;;5013303;28;20065;-77
2020/12/25 09:36:30;;;;;;;1.83;0.82;;;5.50;95.50;;;;;;4995587;28;20393;-76
2020/12/25 09:38:55;;;;;;;0.93;0.50;;;5.50;95.50;;;;;;5013019;28;20088;-77
2020/12/25 09:41:21;;;;;;;1.50;0.82;;;5.50;95.40;;;;;;5012107;28;20438;-77
2020/12/25 09:43:47;;;;;;;1.40;0.70;;;5.60;95.50;;;;;;5011295;28;20473;-76
2020/12/25 09:46:12;;;;;;;2.55;0.90;;;5.60;95.50;;;;;;4995703;28;20053;-76
2020/12/25 09:48:38;;;;;;;2.35;1.02;;;5.60;95.40;;;;;;4995316;28;20163;-77
2020/12/25 09:51:04;;;;;;;2.83;0.73;;;5.70;95.50;;;;;;5013410;28;20447;-77
2020/12/25 09:53:29;;;;;;;1.70;0.57;;;5.80;95.50;;;;;;5011914;28;20225;-77
2020/12/25 09:55:55;;;;;;;8.32;1.02;;;5.90;95.60;;;;;;4994810;28;20454;-76
2020/12/25 09:58:21;;;;;;;4.65;1.00;;;5.90;95.40;;;;;;4995441;28;20514;-77
2020/12/25 10:00:46;;;;;;;0.50;0.50;;;6.00;95.40;;;;;;5011097;28;20030;-77
2020/12/25 10:03:12;;;;;;;1.85;0.50;;;6.00;95.40;;;;;;5013095;28;20512;-76
2020/12/25 10:05:38;;;;;;;0.40;0.40;;;6.00;95.40;;;;;;5013002;28;20113;-82
2020/12/25 10:08:03;;;;;;;2.25;0.55;;;6.00;95.50;;;;;;4996505;28;20026;-76
2020/12/25 10:10:29;;;;;;;1.10;0.60;;;6.00;95.40;;;;;;5011691;28;20042;-76
2020/12/25 10:12:55;;;;;;;1.45;0.75;;;6.10;95.50;;;;;;5012673;28;20091;-76
2020/12/25 10:15:21;;;;;;;3.92;0.70;;;6.20;95.50;;;;;;5012773;28;20458;-76
2020/12/25 10:33:13;;;;;;;0.80;0.75;;;6.20;95.00;;;;;;5086708;27;20887;-72
2020/12/25 10:35:38;;;;;;;2.45;0.80;;;6.90;94.60;;;;;;5086178;28;20024;-73
2020/12/25 10:38:04;;;;;;;1.83;0.65;;;6.80;94.70;;;;;;5087388;28;20465;-76
2020/12/25 10:40:30;;;;;;;2.22;0.55;;;6.70;94.70;;;;;;5086431;28;20483;-75
2020/12/25 10:42:55;;;;;;;0.77;0.55;;;6.60;94.70;;;;;;5068799;28;20023;-76
2020/12/25 10:45:21;;;;;;;1.00;0.70;;;6.60;94.80;;;;;;5086972;28;20461;-75
2020/12/25 10:47:47;;;;;;;3.35;0.80;;;6.60;94.90;;;;;;5086236;28;20415;-76
2020/12/25 10:50:13;;;;;;;0.50;0.50;;;6.50;94.90;;;;;;5059519;28;20469;-75
2020/12/25 10:52:38;;;;;;;0.55;0.55;;;6.50;94.90;;;;;;5065920;28;20021;-76
2020/12/25 10:55:04;;;;;;;0.40;0.40;;;6.50;95.00;;;;;;5048683;28;20024;-76
2020/12/25 10:57:30;;;;;;;4.05;0.80;;;6.40;94.90;;;;;;5048059;28;20029;-75
2020/12/25 10:59:55;;;;;;;0.50;0.50;;;6.40;95.00;;;;;;5066404;28;20384;-75
2020/12/25 11:02:21;;;;;;;0.40;0.40;;;6.50;95.20;;;;;;5066263;28;20116;-73
2020/12/25 11:04:47;;;;;;;2.15;0.50;;;6.50;95.20;;;;;;5065414;28;20445;-74
2020/12/25 11:07:12;;;;;;;1.77;0.60;;;6.60;95.10;;;;;;5048284;28;20065;-74
2020/12/25 11:09:38;;;;;;;0.45;0.43;;;6.60;95.10;;;;;;5047784;28;20033;-74
2020/12/25 11:12:03;;;;;;;1.15;0.50;;;6.60;95.10;;;;;;5066191;28;20031;-74
2020/12/25 11:14:29;;;;;;;0.40;0.40;;;6.60;95.20;;;;;;5047248;28;20024;-74
2020/12/25 11:16:56;;;;;;;0.70;0.60;;;6.70;95.20;;;;;;5065456;28;20175;-75
2020/12/25 11:19:22;;;;;;;0.93;0.50;;;6.80;95.20;;;;;;5047980;28;20025;-75
2020/12/25 11:21:48;;;;;;;0.47;0.43;;;6.80;95.30;;;;;;5047375;28;20464;-75
2020/12/25 11:24:14;;;;;;;3.63;0.68;;;7.00;95.30;;;;;;5047810;28;20021;-75
2020/12/25 11:26:39;;;;;;;0.47;0.47;;;7.10;95.40;;;;;;5065675;28;20028;-75
2020/12/25 11:29:09;;;;;;;0.50;0.50;;;7.20;95.40;;;;;;5047659;28;20562;-74
2020/12/25 11:31:36;;;;;;;0.45;0.45;;;7.30;95.30;;;;;;5057868;28;20107;-74
2020/12/25 11:34:03;;;;;;;0.82;0.60;;;7.40;95.40;;;;;;5050932;28;20021;-75
2020/12/25 11:36:34;;;;;;;0.50;0.45;;;7.50;95.30;;;;;;5051494;28;20021;-74
2020/12/25 11:39:00;;;;;;;0.73;0.50;;;7.50;95.20;;;;;;5033869;28;20092;-75
2020/12/25 11:41:27;;;;;;;0.50;0.50;;;7.50;95.20;;;;;;5033933;28;20040;-75
2020/12/25 11:43:54;;;;;;;0.88;0.57;;;7.50;95.20;;;;;;5051557;28;20028;-75
2020/12/25 11:46:20;;;;;;;0.60;0.60;;;7.60;95.20;;;;;;5050859;28;20036;-74
2020/12/25 11:48:48;;;;;;;0.95;0.73;;;7.60;95.20;;;;;;5034400;28;20036;-74
2020/12/25 11:51:20;;;;;;;2.30;0.70;;;7.60;95.30;;;;;;5053920;28;20471;-74
2020/12/25 11:53:46;;;;;;;0.70;0.70;;;7.60;95.10;;;;;;5035405;28;20472;-75
2020/12/25 11:56:16;;;;;;;1.90;0.70;;;7.60;95.00;;;;;;5033358;28;20124;-75
2020/12/25 11:58:42;;;;;;;3.03;0.57;;;7.50;95.10;;;;;;5033504;28;20017;-74
2020/12/25 12:01:07;;;;;;;2.13;0.63;;;7.50;95.20;;;;;;5033749;28;20359;-74
2020/12/25 12:03:33;;;;;;;1.00;0.82;;;7.50;95.20;;;;;;5033452;28;20381;-75
2020/12/25 12:05:59;;;;;;;2.85;0.90;;;7.60;95.20;;;;;;5051943;28;20017;-74
2020/12/25 12:08:24;;;;;;;1.20;0.70;;;7.50;95.10;;;;;;5051526;28;20438;-76
2020/12/25 12:10:50;;;;;;;0.90;0.55;;;7.50;95.10;;;;;;5033539;28;20422;-74
2020/12/25 12:13:16;;;;;;;1.25;0.70;;;7.50;95.20;;;;;;5033587;28;20022;-76
2020/12/25 12:15:42;;;;;;;2.75;0.70;;;7.50;95.20;;;;;;5051739;28;20025;-75
2020/12/25 12:18:08;;;;;;;1.70;0.80;;;7.50;95.20;;;;;;5051394;28;20100;-75
2020/12/25 12:20:35;;;;;;;0.85;0.60;;;7.50;95.10;;;;;;5050255;28;20021;-75
2020/12/25 12:23:01;;;;;;;2.17;1.52;;;7.50;95.10;;;;;;5033431;28;20044;-75
2020/12/25 12:25:29;;;;;;;4.85;1.00;;;7.50;95.00;;;;;;5051791;28;20025;-74
2020/12/25 12:27:55;;;;;;;1.30;0.63;;;7.50;95.10;;;;;;5048323;28;20052;-75
2020/12/25 12:30:21;;;;;;;1.33;1.05;;;7.50;95.00;;;;;;5050181;28;20025;-73
2020/12/25 12:32:47;;;;;;;1.85;0.85;;;7.50;95.00;;;;;;5050988;28;20069;-75
2020/12/25 12:35:13;;;;;;;1.73;0.60;;;7.50;95.10;;;;;;5033645;28;20052;-75
2020/12/25 12:37:40;;;;;;;3.78;0.95;;;7.50;95.10;;;;;;5050243;28;20013;-73
2020/12/25 12:40:06;;;;;;;6.80;0.70;;;7.50;95.10;;;;;;5051263;28;20446;-74
2020/12/25 12:42:33;;;;;;;2.30;0.77;;;7.50;95.10;;;;;;5050063;28;20025;-74
2020/12/25 12:44:59;;;;;;;0.88;0.75;;;7.60;95.20;;;;;;5033217;28;20032;-73
2020/12/25 12:47:25;;;;;;;2.40;0.75;;;7.60;95.20;;;;;;5051083;28;20099;-75
2020/12/25 12:49:50;;;;;;;0.82;0.70;;;7.70;95.10;;;;;;5050614;28;20519;-75
2020/12/25 12:52:16;;;;;;;0.73;0.65;;;7.80;95.20;;;;;;5033215;28;20028;-75
2020/12/25 12:54:42;;;;;;;1.13;0.70;;;7.90;95.10;;;;;;5050530;28;20047;-75
2020/12/25 12:57:07;;;;;;;2.67;0.60;;;7.90;95.10;;;;;;5050805;28;20017;-75
2020/12/25 12:59:33;;;;;;;5.55;1.63;;;7.90;95.00;;;;;;5033040;28;20152;-75
2020/12/25 13:01:59;;;;;;;1.58;0.70;;;8.00;95.10;;;;;;5050684;28;20426;-74
2020/12/25 13:04:25;;;;;;;2.72;0.65;;;8.00;95.10;;;;;;5050820;28;20159;-74
2020/12/25 13:06:51;;;;;;;0.90;0.60;;;8.00;95.00;;;;;;5049828;28;20064;-74
2020/12/25 13:09:17;;;;;;;2.25;0.70;;;8.10;95.00;;;;;;5050668;28;20049;-75
2020/12/25 13:11:43;;;;;;;0.57;0.43;;;8.10;95.10;;;;;;5032124;28;20078;-74
2020/12/25 13:14:10;;;;;;;1.75;0.63;;;8.10;95.10;;;;;;5032765;28;20017;-74